createdAt,value
2019-04-05T00:00:05.771Z,8.40
2019-04-05T00:05:12.846Z,7.67
2019-04-05T00:10:17.922Z,8.08
2019-04-05T00:15:22.656Z,7.60
2019-04-05T00:20:28.796Z,8.23
2019-04-05T00:25:33.735Z,7.92
2019-04-05T00:30:38.640Z,7.92
2019-04-05T00:35:44.520Z,8.38
2019-04-05T00:40:49.412Z,8.50
2019-04-05T00:45:54.242Z,8.53
2019-04-05T00:50:59.219Z,7.95
2019-04-05T00:56:04.122Z,7.72
2019-04-05T01:01:08.848Z,7.95
2019-04-05T01:06:13.755Z,7.95
2019-04-05T01:11:18.552Z,8.33
2019-04-05T01:16:23.316Z,7.92
2019-04-05T01:21:33.172Z,8.40
2019-04-05T01:26:39.405Z,8.45
2019-04-05T01:31:44.280Z,8.48
2019-04-05T01:36:49.132Z,8.18
2019-04-05T01:41:54.130Z,8.75
2019-04-05T01:46:59.041Z,8.65
2019-04-05T01:52:04.116Z,9.08
2019-04-05T01:57:08.879Z,8.60
2019-04-05T02:02:13.678Z,8.13
2019-04-05T02:07:18.552Z,9.00
2019-04-05T02:12:23.697Z,8.70
2019-04-05T02:17:28.630Z,8.53
2019-04-05T02:22:33.459Z,8.95
2019-04-05T02:27:38.361Z,8.93
2019-04-05T02:32:43.370Z,9.60
2019-04-05T02:37:48.643Z,8.90
2019-04-05T02:42:55.253Z,8.98
2019-04-05T02:48:03.331Z,8.83
2019-04-05T02:53:11.446Z,9.03
2019-04-05T02:58:17.080Z,9.07
2019-04-05T03:03:22.306Z,8.63
2019-04-05T03:08:27.542Z,9.58
2019-04-05T03:13:38.488Z,9.45
2019-04-05T03:18:47.911Z,9.10
2019-04-05T03:23:54.099Z,9.43
2019-04-05T03:29:01.547Z,9.53
2019-04-05T03:34:07.809Z,9.25
2019-04-05T03:39:13.040Z,10.50
2019-04-05T03:44:18.038Z,9.30
2019-04-05T03:49:22.984Z,10.07
2019-04-05T03:54:28.334Z,9.75
2019-04-05T03:59:33.719Z,10.03
2019-04-05T04:04:38.733Z,9.48
2019-04-05T04:09:43.664Z,9.55
2019-04-05T04:14:49.452Z,10.00
2019-04-05T04:19:54.805Z,9.93
2019-04-05T04:25:00.448Z,10.00
2019-04-05T04:30:06.162Z,9.83
2019-04-05T04:35:11.400Z,10.40
2019-04-05T04:40:16.665Z,11.08
2019-04-05T04:45:21.886Z,10.87
2019-04-05T04:50:28.441Z,10.90
2019-04-05T04:55:33.416Z,11.25
2019-04-05T05:00:38.594Z,10.13
2019-04-05T05:05:43.718Z,10.63
2019-04-05T05:10:48.696Z,10.87
2019-04-05T05:15:53.580Z,10.27
2019-04-05T05:20:58.642Z,10.87
2019-04-05T05:26:03.812Z,10.88
2019-04-05T05:31:08.675Z,11.10
2019-04-05T05:36:13.558Z,10.88
2019-04-05T05:41:19.564Z,11.80
2019-04-05T05:46:24.532Z,10.88
2019-04-05T05:51:31.031Z,10.72
2019-04-05T05:56:35.951Z,12.78
2019-04-05T06:01:40.894Z,13.95
2019-04-05T06:06:45.763Z,14.83
2019-04-05T06:11:50.719Z,16.55
2019-04-05T06:16:55.521Z,17.23
2019-04-05T06:22:00.427Z,18.80
2019-04-05T06:27:05.496Z,18.42
2019-04-05T06:32:10.687Z,20.37
2019-04-05T06:37:15.627Z,20.60
2019-04-05T06:42:20.488Z,21.07
2019-04-05T06:47:25.496Z,21.30
2019-04-05T06:52:30.506Z,21.47
2019-04-05T06:57:43.342Z,22.20
2019-04-05T07:02:50.160Z,22.70
2019-04-05T07:07:55.184Z,20.35
2019-04-05T07:12:59.941Z,21.50
2019-04-05T07:18:10.812Z,23.32
2019-04-05T07:23:15.812Z,21.70
2019-04-05T07:28:20.656Z,21.80
2019-04-05T07:33:27.256Z,21.90
2019-04-05T07:38:42.239Z,21.60
2019-04-05T07:43:52.990Z,22.13
2019-04-05T07:48:57.865Z,23.02
2019-04-05T07:54:03.103Z,21.23
2019-04-05T07:59:09.895Z,21.33
2019-04-05T08:04:14.830Z,21.27
2019-04-05T08:09:20.439Z,20.90
2019-04-05T08:14:33.140Z,21.83
2019-04-05T08:19:40.504Z,20.45
2019-04-05T08:24:45.759Z,20.55
2019-04-05T08:29:54.151Z,18.53
2019-04-05T08:34:59.299Z,20.60
2019-04-05T08:40:04.711Z,20.77
2019-04-05T08:45:10.824Z,20.50
2019-04-05T08:50:24.451Z,20.77
2019-04-05T08:55:33.789Z,20.27
2019-04-05T09:00:37.340Z,21.05
2019-04-05T09:05:43.582Z,21.80
2019-04-05T09:10:47.113Z,21.67
2019-04-05T09:15:51.938Z,23.37
2019-04-05T09:20:56.891Z,20.63
2019-04-05T09:26:03.135Z,22.60
2019-04-05T09:31:13.878Z,24.23
2019-04-05T09:36:18.794Z,23.50
2019-04-05T09:41:30.401Z,24.15
2019-04-05T09:46:45.892Z,22.15
2019-04-05T09:51:41.860Z,23.07
2019-04-05T09:56:46.784Z,25.23
2019-04-05T10:01:51.869Z,22.30
2019-04-05T10:06:55.359Z,24.85
2019-04-05T10:12:05.058Z,26.20
2019-04-05T10:17:10.011Z,24.95
2019-04-05T10:22:14.794Z,28.23
2019-04-05T10:27:19.728Z,25.65
2019-04-05T10:32:24.838Z,25.50
2019-04-05T10:37:29.847Z,24.60
2019-04-05T10:42:36.708Z,22.77
2019-04-05T10:47:48.660Z,22.60
2019-04-05T10:53:04.381Z,22.65
2019-04-05T10:58:09.939Z,22.50
2019-04-05T11:03:15.141Z,21.80
2019-04-05T11:08:20.089Z,21.95
2019-04-05T11:13:24.924Z,23.30
2019-04-05T11:18:30.639Z,20.40
2019-04-05T11:23:48.477Z,20.48
2019-04-05T11:28:55.735Z,19.42
2019-04-05T11:34:00.779Z,21.42
2019-04-05T11:39:05.537Z,20.10
2019-04-05T11:44:08.992Z,19.27
2019-04-05T11:49:15.106Z,19.77
2019-04-05T11:54:19.977Z,19.20
2019-04-05T12:19:51.909Z,19.23
2019-04-05T12:24:57.178Z,19.42
2019-04-05T12:30:02.469Z,18.40
2019-04-05T12:35:08.690Z,20.95
2019-04-05T12:40:14.908Z,20.55
2019-04-05T12:45:19.870Z,21.50
2019-04-05T12:50:24.870Z,20.32
2019-04-05T12:55:29.799Z,20.75
2019-04-05T13:00:34.814Z,19.90
2019-04-05T13:05:40.376Z,22.07
2019-04-05T13:10:45.517Z,19.10
2019-04-05T13:15:51.026Z,18.37
2019-04-05T13:21:01.150Z,16.65
2019-04-05T13:26:07.320Z,19.37
2019-04-05T13:31:12.221Z,20.37
2019-04-05T13:36:17.051Z,18.20
2019-04-05T13:41:22.523Z,17.23
2019-04-05T13:46:28.208Z,16.60
2019-04-05T13:51:32.110Z,19.45
2019-04-05T13:56:41.115Z,19.32
2019-04-05T14:01:46.247Z,19.75
2019-04-05T14:07:03.864Z,16.95
2019-04-05T14:12:09.502Z,18.65
2019-04-05T14:17:16.176Z,17.80
2019-04-05T14:22:22.504Z,18.37
2019-04-05T14:27:27.815Z,17.15
2019-04-05T14:32:33.747Z,17.73
2019-04-05T14:37:41.455Z,18.07
2019-04-05T14:42:54.240Z,18.50
2019-04-05T14:47:59.711Z,19.20
2019-04-05T14:53:04.941Z,19.70
2019-04-05T14:58:10.653Z,18.75
2019-04-05T15:03:15.868Z,16.35
2019-04-05T15:08:21.205Z,18.45
2019-04-05T15:13:25.988Z,19.17
2019-04-05T15:18:31.309Z,20.15
2019-04-05T15:23:36.170Z,19.50
2019-04-05T15:28:40.942Z,18.07
2019-04-05T15:33:46.009Z,18.77
2019-04-05T15:38:56.840Z,18.15
2019-04-05T15:44:01.731Z,18.92
2019-04-05T15:49:05.277Z,18.62
2019-04-05T15:54:10.128Z,19.45
2019-04-05T15:59:15.218Z,19.07
2019-04-05T16:04:20.075Z,18.05
2019-04-05T16:09:24.907Z,18.52
2019-04-05T16:14:29.607Z,18.60
2019-04-05T16:19:34.338Z,20.75
2019-04-05T16:24:41.462Z,18.05
2019-04-05T16:29:47.846Z,19.80
2019-04-05T16:35:02.415Z,19.25
2019-04-05T16:40:07.850Z,19.10
2019-04-05T16:45:14.304Z,18.73
2019-04-05T16:50:21.385Z,17.23
2019-04-05T16:55:27.892Z,19.37
2019-04-05T17:00:32.748Z,16.97
2019-04-05T17:05:43.379Z,18.25
2019-04-05T17:10:48.273Z,18.55
2019-04-05T17:15:53.073Z,18.90
2019-04-05T17:20:57.857Z,17.95
2019-04-05T17:26:02.853Z,18.80
2019-04-05T17:31:07.760Z,19.27
2019-04-05T17:36:12.591Z,19.02
2019-04-05T17:41:17.540Z,18.48
2019-04-05T17:46:22.828Z,19.00
2019-04-05T17:51:28.840Z,20.48
2019-04-05T17:56:33.769Z,19.70
2019-04-05T18:01:38.972Z,19.12
2019-04-05T18:06:45.069Z,19.20
2019-04-05T18:11:49.998Z,19.07
2019-04-05T18:16:54.914Z,20.10
2019-04-05T18:21:59.857Z,20.85
2019-04-05T18:27:06.181Z,19.35
2019-04-05T18:32:11.240Z,18.40
2019-04-05T18:37:16.333Z,19.40
2019-04-05T18:42:21.168Z,18.98
2019-04-05T18:47:25.901Z,19.12
2019-04-05T18:52:31.145Z,19.67
2019-04-05T18:57:36.309Z,19.82
2019-04-05T19:02:41.140Z,18.17
2019-04-05T19:07:48.542Z,18.17
2019-04-05T19:12:55.258Z,19.32
2019-04-05T19:18:00.681Z,18.60
2019-04-05T19:23:05.739Z,18.80
2019-04-05T19:28:10.638Z,18.92
2019-04-05T19:48:35.825Z,19.25
2019-04-05T19:53:42.734Z,20.62
2019-04-05T19:58:47.535Z,19.90
2019-04-05T20:03:52.925Z,19.25
2019-04-05T20:08:58.374Z,20.88
2019-04-05T20:14:08.943Z,19.98
2019-04-05T20:19:13.973Z,18.57
2019-04-05T20:24:18.823Z,20.02
2019-04-05T20:29:23.752Z,19.55
2019-04-05T20:34:28.712Z,20.10
2019-04-05T20:39:33.392Z,20.23
2019-04-05T20:44:38.099Z,20.20
2019-04-05T20:49:43.043Z,19.67
2019-04-05T20:54:47.760Z,19.65
2019-04-05T20:59:53.835Z,19.85
2019-04-05T21:04:58.649Z,18.55
2019-04-05T21:10:04.237Z,18.92
2019-04-05T21:15:10.478Z,19.23
2019-04-05T21:20:15.620Z,20.10
2019-04-05T21:25:27.461Z,18.55
2019-04-05T21:30:32.381Z,18.87
2019-04-05T21:35:37.280Z,20.52
2019-04-05T21:40:42.106Z,20.35
2019-04-05T21:45:47.210Z,19.30
2019-04-05T21:50:52.142Z,19.02
2019-04-05T21:55:56.965Z,19.20
2019-04-05T22:01:03.535Z,21.15
2019-04-05T22:06:10.162Z,20.37
2019-04-05T22:11:15.076Z,20.10
2019-04-05T22:16:28.755Z,20.90
2019-04-05T22:21:33.577Z,19.32
2019-04-05T22:26:38.664Z,19.52
2019-04-05T22:31:43.362Z,20.60
2019-04-05T22:36:48.217Z,19.67
2019-04-05T22:41:53.220Z,19.05
2019-04-05T22:46:58.142Z,18.65
2019-04-05T22:52:03.118Z,19.60
2019-04-05T22:57:08.060Z,18.82
2019-04-05T23:02:12.739Z,19.00
2019-04-05T23:07:17.501Z,18.35
2019-04-05T23:12:22.587Z,19.50
2019-04-05T23:17:29.967Z,19.02
2019-04-05T23:22:34.776Z,18.87
2019-04-05T23:27:46.607Z,17.70
2019-04-05T23:32:51.677Z,19.55
2019-04-05T23:37:56.429Z,19.57
2019-04-05T23:43:01.242Z,19.70
2019-04-05T23:48:06.472Z,18.82
2019-04-05T23:53:12.256Z,19.62
2019-04-05T23:58:17.236Z,18.62
